Haltwhistle, United Kingdom
Current Conditions -  °F | °C
As of 8:50 PM on Thursday 20 Nov 2014 (Local Time) from EGOM Reporting Station
Moderate Fog Moderate Fog  
Wind Chill: 34°   Ceiling: Unl
Heat Index: 39°   Visibility: 0.15mi
Dew Point: 39°   Wind: 7mph
Humidity: 100%   Direction: 60°ENE
Pressure: 30.27"   Gusts: NA
Location:  54.97°N, 2.46°W
Report Text: EGOM 202050Z AUTO 06006KT 0250 FG SCT001/// SCT070/// 04/04 Q1025
Loading
Personal Weather Stations






























Interactive Weather Map New forecast layout! Learn more

10-Day Weather Forecast

Advertisements
Track Severe Weather on mobile